Time;durP1;ratioP1;P1;durP2;ratioP2;P2;SDS_P1;SDS_P2;PMS_P1;PMS_P2;Temp;Humidity;BMP_temperature;BMP_pressure;BME280_temperature;BME280_humidity;BME280_pressure;Samples;Min_cycle;Max_cycle;Signal;HPM_P1;HPM_P2
2023/07/19 00:01:14;;;;;;;4.20;3.42;;;;;;;21.14;56.41;96990.47;5847805;23;20165;-80
2023/07/19 00:03:39;;;;;;;3.70;2.90;;;;;;;21.25;57.15;96999.63;5871524;23;20556;-79
2023/07/19 00:06:05;;;;;;;4.50;3.25;;;;;;;21.21;56.60;96995.28;5848286;23;20192;-80
2023/07/19 00:08:31;;;;;;;4.13;3.05;;;;;;;21.21;56.77;97001.34;5870674;24;20209;-80
2023/07/19 00:10:56;;;;;;;4.47;3.45;;;;;;;21.11;57.50;96991.09;5880652;24;20318;-80
2023/07/19 00:13:21;;;;;;;3.47;3.17;;;;;;;21.13;57.48;97002.16;5880622;24;20176;-79
2023/07/19 00:15:47;;;;;;;4.78;3.50;;;;;;;21.06;57.66;96994.72;5880352;24;20078;-79
2023/07/19 00:18:12;;;;;;;4.55;3.10;;;;;;;21.20;57.56;97004.31;5870685;24;20284;-80
2023/07/19 00:20:37;;;;;;;4.32;3.17;;;;;;;21.16;57.55;96992.81;5847283;23;20164;-80
2023/07/19 00:23:03;;;;;;;3.65;3.22;;;;;;;21.20;57.69;97009.59;5871742;23;20236;-79
2023/07/19 00:25:28;;;;;;;4.07;3.58;;;;;;;21.21;57.12;97001.34;5880953;24;20558;-80
2023/07/19 00:27:54;;;;;;;5.18;3.50;;;;;;;21.20;57.34;96996.34;5887620;24;20269;-80
2023/07/19 00:30:19;;;;;;;5.18;3.08;;;;;;;21.19;57.98;96992.19;5880554;23;20379;-80
2023/07/19 00:32:44;;;;;;;4.68;3.72;;;;;;;21.23;58.08;96991.22;5886669;24;20228;-80
2023/07/19 00:35:10;;;;;;;5.15;3.42;;;;;;;21.21;58.20;96985.44;5854443;23;20549;-80
2023/07/19 00:37:36;;;;;;;4.53;3.40;;;;;;;21.27;57.83;96994.03;5880393;24;20399;-79
2023/07/19 00:40:03;;;;;;;6.30;3.50;;;;;;;21.25;57.91;96988.25;5846679;23;20176;-79
2023/07/19 00:42:29;;;;;;;4.57;3.58;;;;;;;21.24;58.13;96984.06;5879986;24;20549;-80
2023/07/19 00:44:54;;;;;;;5.70;3.40;;;;;;;21.26;58.67;96990.56;5878799;24;20138;-79
2023/07/19 00:47:20;;;;;;;4.18;3.50;;;;;;;21.26;58.84;96990.56;5849035;23;20176;-80
2023/07/19 00:49:45;;;;;;;5.28;3.38;;;;;;;21.25;58.36;96986.38;5876065;23;20620;-78
2023/07/19 00:52:11;;;;;;;5.15;3.47;;;;;;;21.26;58.56;96982.63;5881205;23;20442;-80
2023/07/19 00:54:36;;;;;;;5.18;3.85;;;;;;;21.28;59.11;96990.25;5879931;24;20473;-80
2023/07/19 00:57:03;;;;;;;4.90;3.30;;;;;;;21.23;58.81;96979.84;5881222;24;20258;-80
2023/07/19 00:59:28;;;;;;;5.45;3.80;;;;;;;21.23;58.60;96982.50;5878171;24;20581;-80
2023/07/19 01:01:54;;;;;;;4.53;3.47;;;;;;;21.20;59.07;96967.22;5915398;23;20187;-81
2023/07/19 01:04:20;;;;;;;5.03;3.70;;;;;;;21.28;58.78;96990.25;5902412;23;20281;-82
2023/07/19 01:06:49;;;;;;;4.35;3.28;;;;;;;21.27;58.48;96980.78;5903920;23;20422;-82
2023/07/19 01:09:14;;;;;;;4.90;4.20;;;;;;;21.26;58.47;96985.28;5912466;23;20268;-81
2023/07/19 01:11:40;;;;;;;5.40;3.65;;;;;;;21.17;58.64;96979.25;5910344;23;20197;-83
2023/07/19 01:14:05;;;;;;;4.15;3.50;;;;;;;21.14;58.47;96970.06;5881991;23;20188;-82
2023/07/19 01:16:31;;;;;;;4.35;3.53;;;;;;;21.05;58.78;96964.03;5881793;23;20238;-81
2023/07/19 01:18:56;;;;;;;7.25;3.88;;;;;;;21.16;58.66;96987.50;5935055;23;20597;-81
2023/07/19 01:21:22;;;;;;;4.43;3.40;;;;;;;20.99;58.73;96960.03;5912391;23;20260;-81
2023/07/19 01:23:48;;;;;;;4.30;3.42;;;;;;;21.09;59.08;96964.94;5880034;23;20182;-81
2023/07/19 01:26:13;;;;;;;4.22;3.63;;;;;;;21.02;58.68;96962.00;5912222;23;20263;-81
2023/07/19 01:28:39;;;;;;;5.13;3.80;;;;;;;20.94;59.49;96944.31;5904041;23;20266;-82
2023/07/19 01:31:05;;;;;;;5.13;3.90;;;;;;;20.98;59.41;96947.88;5879871;23;20163;-82
2023/07/19 01:33:31;;;;;;;5.50;3.70;;;;;;;21.09;58.98;96972.88;5936802;23;20198;-81
2023/07/19 01:35:56;;;;;;;3.70;3.30;;;;;;;20.87;58.91;96944.81;5880893;23;20578;-82
2023/07/19 01:38:22;;;;;;;5.53;3.78;;;;;;;21.06;58.87;96973.53;5912870;23;20166;-81
2023/07/19 01:40:47;;;;;;;5.13;3.80;;;;;;;20.94;59.14;96960.19;5936876;23;20147;-81
2023/07/19 01:43:13;;;;;;;4.05;3.70;;;;;;;21.05;58.94;96968.56;5904267;23;20218;-81
2023/07/19 01:45:38;;;;;;;4.50;3.20;;;;;;;20.99;58.99;96956.56;5933010;23;20243;-81
2023/07/19 01:48:04;;;;;;;4.00;3.70;;;;;;;21.06;58.51;96970.88;5934989;23;20591;-82
2023/07/19 01:50:29;;;;;;;3.92;3.22;;;;;;;21.01;58.32;96964.97;5911926;23;20247;-82
2023/07/19 01:52:55;;;;;;;5.93;3.70;;;;;;;20.93;58.67;96954.09;5912505;23;20351;-80
2023/07/19 01:55:21;;;;;;;5.22;3.80;;;;;;;20.79;58.69;96934.25;5935791;23;20605;-82
2023/07/19 01:57:46;;;;;;;3.70;3.38;;;;;;;20.71;58.71;96925.25;5902936;23;20230;-82
2023/07/19 02:00:13;;;;;;;3.60;3.30;;;;;;;20.82;59.23;96941.53;5879876;23;20218;-81
2023/07/19 02:02:39;;;;;;;5.25;3.67;;;;;;;20.73;59.47;96954.78;5875802;23;20596;-81
2023/07/19 02:05:05;;;;;;;4.22;3.72;;;;;;;20.81;59.04;96947.94;5906728;23;20229;-81
2023/07/19 02:07:30;;;;;;;6.72;3.80;;;;;;;20.83;59.05;96948.41;5995873;23;20253;-82
2023/07/19 02:09:56;;;;;;;4.60;3.58;;;;;;;20.62;59.22;96932.41;5876467;23;20168;-81
2023/07/19 02:12:21;;;;;;;4.20;3.30;;;;;;;20.68;59.78;96947.81;5874685;23;20457;-81
2023/07/19 02:14:47;;;;;;;5.13;3.75;;;;;;;20.67;59.24;96948.91;5907978;23;20188;-80
2023/07/19 02:17:12;;;;;;;5.65;3.95;;;;;;;20.74;59.01;96957.13;5907481;23;20307;-82
2023/07/19 02:19:37;;;;;;;6.55;3.70;;;;;;;20.69;59.30;96949.34;5900715;23;20183;-82
2023/07/19 02:22:03;;;;;;;5.03;3.30;;;;;;;20.63;59.08;96950.63;5933814;23;20156;-81
2023/07/19 02:24:28;;;;;;;5.05;3.58;;;;;;;20.57;60.16;96944.69;5900977;23;20611;-80
2023/07/19 02:26:54;;;;;;;4.13;3.72;;;;;;;20.49;59.56;96939.41;5900285;23;20186;-81
2023/07/19 02:29:19;;;;;;;4.80;3.20;;;;;;;20.42;60.43;96950.47;5898154;23;20008;-81
2023/07/19 02:31:45;;;;;;;4.30;3.65;;;;;;;20.41;60.01;96941.00;5874339;23;20707;-81
2023/07/19 02:34:10;;;;;;;5.60;4.05;;;;;;;20.39;60.18;96946.59;5898073;23;20655;-81
2023/07/19 02:36:37;;;;;;;4.55;3.70;;;;;;;20.35;60.37;96940.38;5907725;23;20231;-81
2023/07/19 02:39:03;;;;;;;4.70;3.63;;;;;;;20.38;60.57;96957.50;6019507;23;20244;-81
2023/07/19 02:41:29;;;;;;;5.10;3.55;;;;;;;20.34;60.49;96954.69;5897565;23;20216;-81
2023/07/19 02:43:55;;;;;;;4.03;3.53;;;;;;;20.26;60.19;96952.84;5971388;23;20262;-82
2023/07/19 02:46:23;;;;;;;4.70;3.38;;;;;;;20.26;60.43;96952.84;5852812;23;20157;-81
2023/07/19 02:48:48;;;;;;;5.78;3.90;;;;;;;20.24;60.78;96954.22;6004731;23;20621;-81
2023/07/19 02:51:13;;;;;;;5.18;3.67;;;;;;;20.31;60.80;96965.13;5905513;23;20234;-83
2023/07/19 02:53:39;;;;;;;4.32;3.63;;;;;;;20.37;60.63;96955.91;5908093;23;20239;-81
2023/07/19 02:56:04;;;;;;;5.85;3.67;;;;;;;20.30;60.68;96964.31;5897755;23;20441;-82
2023/07/19 02:58:30;;;;;;;4.30;3.70;;;;;;;20.33;60.61;96969.00;5908687;23;20258;-82
2023/07/19 03:00:55;;;;;;;5.25;3.45;;;;;;;20.24;60.68;96962.16;5898763;23;20089;-81
2023/07/19 03:03:21;;;;;;;6.00;4.13;;;;;;;20.22;61.67;96965.13;5898860;23;20178;-83
2023/07/19 03:05:46;;;;;;;4.68;4.05;;;;;;;20.26;61.84;96968.69;5899585;23;20191;-81
2023/07/19 03:08:12;;;;;;;6.22;4.25;;;;;;;20.27;61.72;96975.56;5884752;23;20171;-80
2023/07/19 03:10:38;;;;;;;5.80;4.53;;;;;;;20.20;61.57;96980.50;5908576;23;20536;-81
2023/07/19 03:13:04;;;;;;;4.85;3.50;;;;;;;20.13;61.63;96980.19;5907373;23;20180;-80
2023/07/19 03:15:33;;;;;;;4.63;3.75;;;;;;;20.09;62.10;96980.03;5899137;23;20165;-81
2023/07/19 03:18:07;;;;;;;4.10;3.50;;;;;;;20.21;62.35;96982.84;5899080;23;20650;-81
2023/07/19 03:20:33;;;;;;;5.07;3.80;;;;;;;20.10;62.50;96978.16;5997795;23;20651;-81
2023/07/19 03:22:59;;;;;;;6.35;4.25;;;;;;;20.07;62.63;96978.81;5899114;23;20209;-81
2023/07/19 03:25:25;;;;;;;5.68;4.50;;;;;;;20.06;62.25;96975.38;5877287;23;20226;-81
2023/07/19 03:27:50;;;;;;;4.43;3.92;;;;;;;20.10;62.43;96975.53;5974324;23;20171;-81
2023/07/19 03:30:16;;;;;;;6.07;3.90;;;;;;;20.10;63.20;96981.63;5898858;23;20600;-80
2023/07/19 03:32:41;;;;;;;6.78;4.07;;;;;;;19.86;63.32;97000.56;5899236;23;20323;-82
2023/07/19 03:35:07;;;;;;;6.15;4.25;;;;;;;19.94;63.06;96994.47;5899373;23;20252;-81
2023/07/19 03:37:34;;;;;;;4.88;3.65;;;;;;;19.95;63.04;96990.00;6030350;23;20190;-80
2023/07/19 03:40:00;;;;;;;7.97;4.07;;;;;;;19.97;62.67;96991.22;6005699;23;20187;-81
2023/07/19 03:42:26;;;;;;;4.50;4.10;;;;;;;19.93;62.68;96987.66;5971664;23;20328;-80
2023/07/19 03:44:51;;;;;;;4.75;4.20;;;;;;;19.87;63.02;96998.69;5899083;23;20208;-81
2023/07/19 03:47:17;;;;;;;6.07;4.28;;;;;;;19.91;62.62;96996.97;5931719;23;20414;-81
2023/07/19 03:49:43;;;;;;;5.60;4.38;;;;;;;19.81;62.57;97001.47;5899350;23;20160;-80
2023/07/19 03:52:08;;;;;;;5.65;3.90;;;;;;;19.77;62.97;97005.03;5931471;23;20141;-81
2023/07/19 03:54:33;;;;;;;5.00;4.13;;;;;;;19.74;63.41;97001.16;5876568;23;20686;-81
2023/07/19 03:56:59;;;;;;;4.47;3.78;;;;;;;19.73;63.51;96993.50;5875952;23;20156;-81
2023/07/19 03:59:24;;;;;;;7.97;4.82;;;;;;;19.77;63.45;96994.47;5896580;23;20321;-81
2023/07/19 04:01:50;;;;;;;7.65;4.80;;;;;;;19.76;64.53;96993.69;5900686;23;20232;-80
2023/07/19 04:04:15;;;;;;;7.07;4.70;;;;;;;19.70;64.25;96999.41;5931673;23;20572;-80
2023/07/19 04:06:40;;;;;;;6.43;4.40;;;;;;;19.74;64.71;97010.91;5899008;23;20616;-82
2023/07/19 04:09:06;;;;;;;4.45;4.00;;;;;;;19.69;64.08;97003.13;5898645;23;20169;-81
2023/07/19 04:11:31;;;;;;;5.40;4.22;;;;;;;19.69;64.14;97008.41;5876007;23;20591;-82
2023/07/19 04:13:57;;;;;;;6.20;4.43;;;;;;;19.70;63.68;97016.03;5931609;23;20171;-81
2023/07/19 04:16:22;;;;;;;6.82;4.68;;;;;;;19.73;63.91;97014.66;5899261;23;20229;-81
2023/07/19 04:18:48;;;;;;;5.60;4.13;;;;;;;19.76;63.52;97008.78;5907253;23;20269;-81
2023/07/19 04:21:13;;;;;;;4.60;3.70;;;;;;;19.81;63.36;97012.03;5907664;23;20231;-82
2023/07/19 04:23:38;;;;;;;4.25;3.55;;;;;;;19.82;63.07;97012.81;5899053;23;20238;-82
2023/07/19 04:26:07;;;;;;;4.57;3.42;;;;;;;19.79;63.13;97019.50;5899213;23;20175;-81
2023/07/19 04:28:32;;;;;;;5.82;3.45;;;;;;;19.79;62.75;97018.72;5875181;23;20268;-82
2023/07/19 04:30:57;;;;;;;5.70;4.13;;;;;;;19.85;63.36;97022.78;5921248;23;20101;-80
2023/07/19 04:33:23;;;;;;;4.72;3.95;;;;;;;19.86;63.74;97019.06;5908045;23;20176;-82
2023/07/19 04:35:50;;;;;;;5.72;3.95;;;;;;;19.93;63.81;97026.50;5908542;23;20321;-80
2023/07/19 04:38:18;;;;;;;6.30;4.57;;;;;;;19.96;63.35;97025.88;5899583;23;20285;-81
2023/07/19 04:40:43;;;;;;;4.85;3.70;;;;;;;19.92;63.18;97017.81;5907817;23;20625;-81
2023/07/19 04:43:09;;;;;;;4.75;4.00;;;;;;;19.99;63.69;97017.34;5899192;23;20166;-82
2023/07/19 04:45:34;;;;;;;8.10;5.32;;;;;;;20.13;64.42;97023.25;5876729;23;20183;-81
2023/07/19 04:47:59;;;;;;;7.60;4.53;;;;;;;20.24;63.69;97029.03;5908553;23;20227;-82
2023/07/19 04:50:25;;;;;;;5.38;4.28;;;;;;;20.33;63.24;97035.09;5908375;23;20195;-82
2023/07/19 04:52:51;;;;;;;6.07;4.50;;;;;;;20.40;62.96;97032.75;5853828;23;20096;-82
2023/07/19 04:55:16;;;;;;;5.55;3.90;;;;;;;20.49;63.20;97035.41;5972349;23;20587;-81
2023/07/19 04:57:42;;;;;;;6.72;4.50;;;;;;;20.57;63.26;97039.16;5909580;23;20183;-81
2023/07/19 05:00:11;;;;;;;4.43;3.85;;;;;;;20.64;63.47;97038.69;5930857;23;20114;-81
2023/07/19 05:02:38;;;;;;;6.18;5.35;;;;;;;20.67;63.84;97040.72;5969360;23;20164;-82
2023/07/19 05:05:05;;;;;;;6.65;4.97;;;;;;;20.75;64.19;97034.63;5972525;23;20226;-81
2023/07/19 05:07:30;;;;;;;6.95;5.32;;;;;;;20.94;63.71;97027.13;5971094;23;20458;-82
2023/07/19 05:09:56;;;;;;;5.90;5.10;;;;;;;20.98;64.34;97026.50;5898298;23;20258;-84
2023/07/19 05:12:21;;;;;;;7.65;5.10;;;;;;;21.13;64.08;97037.34;5898167;23;20183;-82
2023/07/19 05:14:47;;;;;;;8.50;4.43;;;;;;;21.24;63.34;97031.72;5875851;23;20662;-83
2023/07/19 05:17:13;;;;;;;6.28;4.75;;;;;;;21.33;62.45;97040.41;5884539;23;20187;-82
2023/07/19 05:19:38;;;;;;;8.18;4.68;;;;;;;21.38;62.26;97034.91;5899237;23;20148;-81
2023/07/19 05:22:04;;;;;;;6.68;4.75;;;;;;;21.41;62.37;97023.69;5930733;23;20798;-81
2023/07/19 05:24:29;;;;;;;5.65;4.45;;;;;;;21.54;62.63;97039.72;5972003;23;20122;-82
2023/07/19 05:26:55;;;;;;;5.53;4.57;;;;;;;21.57;62.62;97034.56;5899152;23;20174;-81
2023/07/19 05:29:20;;;;;;;4.75;4.15;;;;;;;21.71;62.66;97042.28;5878149;23;20598;-82
2023/07/19 05:31:45;;;;;;;5.68;4.30;;;;;;;21.82;62.32;97029.47;5908010;23;20656;-83
2023/07/19 05:34:11;;;;;;;4.28;3.88;;;;;;;21.98;61.96;97040.25;5909282;23;20081;-81
2023/07/19 05:36:37;;;;;;;7.38;4.78;;;;;;;22.04;61.50;97039.00;5899354;23;20521;-83
2023/07/19 05:39:03;;;;;;;5.35;4.85;;;;;;;22.12;61.47;97038.13;5899352;23;20137;-83
2023/07/19 05:41:28;;;;;;;6.70;4.38;;;;;;;22.18;61.15;97047.47;5898096;23;20084;-82
2023/07/19 05:43:54;;;;;;;5.72;4.78;;;;;;;22.22;61.49;97048.34;5899498;23;20544;-82
2023/07/19 05:46:20;;;;;;;6.30;4.72;;;;;;;22.21;61.54;97046.81;5852764;23;20273;-82
2023/07/19 05:48:45;;;;;;;5.40;4.75;;;;;;;22.23;61.24;97041.97;5909207;23;20149;-83
2023/07/19 05:51:12;;;;;;;5.95;4.53;;;;;;;22.22;61.15;97040.41;5909485;23;20454;-82
2023/07/19 05:53:37;;;;;;;5.13;4.40;;;;;;;22.25;61.47;97034.44;5899251;23;20127;-83
2023/07/19 05:56:03;;;;;;;5.18;4.45;;;;;;;22.25;61.46;97039.00;5898498;23;20235;-83
2023/07/19 05:58:30;;;;;;;5.22;4.60;;;;;;;22.29;61.62;97047.09;5921828;23;20163;-81
2023/07/19 06:00:55;;;;;;;5.10;4.60;;;;;;;22.27;61.52;97044.75;5898774;23;20211;-81
2023/07/19 06:03:21;;;;;;;5.40;4.53;;;;;;;22.31;61.36;97045.69;5898069;23;20647;-81
2023/07/19 06:05:46;;;;;;;6.10;4.60;;;;;;;22.22;61.48;97039.63;5853040;23;20282;-81
2023/07/19 06:08:12;;;;;;;6.05;4.50;;;;;;;22.29;61.16;97047.88;5875688;23;20246;-82
2023/07/19 06:10:38;;;;;;;5.97;4.57;;;;;;;22.25;61.23;97047.72;6030281;23;20182;-81
2023/07/19 06:13:03;;;;;;;6.32;4.60;;;;;;;22.28;61.20;97051.63;5854659;23;20180;-81
2023/07/19 06:15:31;;;;;;;7.32;4.70;;;;;;;22.32;61.06;97054.41;5910361;23;20278;-81
2023/07/19 06:17:56;;;;;;;5.90;4.65;;;;;;;22.38;60.99;97055.75;5998768;23;20187;-85
2023/07/19 06:20:22;;;;;;;5.55;4.40;;;;;;;22.49;61.25;97054.28;5880009;23;20188;-82
2023/07/19 06:22:47;;;;;;;4.95;4.43;;;;;;;22.63;61.00;97052.13;5909772;23;20167;-81
2023/07/19 06:25:12;;;;;;;5.50;4.82;;;;;;;22.96;60.86;97061.19;5878449;23;20747;-83
2023/07/19 06:27:38;;;;;;;5.95;4.55;;;;;;;23.28;59.39;97056.97;5905154;23;20210;-81
2023/07/19 06:30:04;;;;;;;8.07;5.30;;;;;;;23.51;58.57;97052.03;5880424;23;20174;-82
2023/07/19 06:32:30;;;;;;;5.97;4.80;;;;;;;23.78;57.21;97047.13;5877707;23;20684;-81
2023/07/19 06:34:57;;;;;;;5.30;4.30;;;;;;;24.04;55.91;97051.34;5909460;23;20195;-81
2023/07/19 06:37:23;;;;;;;5.53;3.78;;;;;;;24.22;55.79;97047.31;5901433;23;20697;-82
2023/07/19 06:39:48;;;;;;;5.82;4.28;;;;;;;24.24;55.12;97046.97;5902219;23;20345;-82
2023/07/19 06:42:14;;;;;;;5.63;4.60;;;;;;;24.31;55.06;97050.59;5898716;23;20198;-82
2023/07/19 06:44:39;;;;;;;6.05;4.47;;;;;;;24.44;54.39;97047.94;5901442;23;20483;-83
2023/07/19 06:47:05;;;;;;;5.45;4.25;;;;;;;24.62;53.74;97053.75;5973778;23;20258;-83
2023/07/19 06:49:30;;;;;;;6.70;4.60;;;;;;;24.85;53.12;97052.09;5854177;23;20156;-82
2023/07/19 06:51:56;;;;;;;5.60;4.28;;;;;;;24.94;53.14;97043.19;5904783;23;20247;-82
2023/07/19 06:54:21;;;;;;;4.95;4.45;;;;;;;25.05;52.92;97038.88;5974869;23;20329;-81
2023/07/19 06:56:46;;;;;;;5.93;4.35;;;;;;;25.14;52.59;97060.81;5900622;23;20183;-81
2023/07/19 06:59:13;;;;;;;5.60;4.30;;;;;;;25.29;51.82;97053.19;5901134;23;20156;-81
2023/07/19 07:01:39;;;;;;;5.95;4.28;;;;;;;25.48;51.08;97050.63;5900711;23;20115;-82
2023/07/19 07:04:08;;;;;;;5.55;3.88;;;;;;;25.33;51.15;97049.50;5902085;23;20214;-83
2023/07/19 07:06:34;;;;;;;4.55;4.15;;;;;;;25.37;50.86;97050.38;5901013;23;20225;-81
2023/07/19 07:08:59;;;;;;;6.03;4.30;;;;;;;25.40;51.08;97054.25;5909149;23;20164;-81
2023/07/19 07:11:24;;;;;;;6.20;4.60;;;;;;;25.68;50.73;97064.03;5899998;23;20501;-82
2023/07/19 07:13:50;;;;;;;4.95;4.10;;;;;;;25.95;48.96;97052.47;5854663;23;20644;-82
2023/07/19 07:16:17;;;;;;;5.10;4.60;;;;;;;26.24;47.85;97054.97;5902811;23;20088;-81
2023/07/19 07:18:43;;;;;;;5.05;3.97;;;;;;;26.48;46.78;97061.94;5973241;23;20565;-81
2023/07/19 07:21:09;;;;;;;4.82;4.03;;;;;;;26.70;46.02;97058.59;5903144;23;20277;-81
2023/07/19 07:23:34;;;;;;;4.78;3.50;;;;;;;26.71;44.83;97049.44;5881307;23;20257;-82
2023/07/19 07:25:59;;;;;;;3.95;3.60;;;;;;;26.87;45.19;97059.25;5856858;23;20168;-82
2023/07/19 07:28:25;;;;;;;4.10;3.70;;;;;;;27.12;43.92;97050.91;5914508;23;20168;-81
2023/07/19 07:30:51;;;;;;;5.22;3.50;;;;;;;27.23;44.04;97052.66;5905133;23;20163;-82
2023/07/19 07:33:16;;;;;;;3.72;3.22;;;;;;;27.35;43.19;97048.25;5904504;23;20179;-82
2023/07/19 07:35:42;;;;;;;4.10;3.70;;;;;;;27.25;43.42;97041.59;6013140;23;20647;-81
2023/07/19 07:38:08;;;;;;;5.78;3.33;;;;;;;27.26;44.16;97048.47;5934099;23;20230;-82
2023/07/19 07:40:33;;;;;;;3.80;3.13;;;;;;;27.53;43.10;97043.19;5916489;23;20175;-82
2023/07/19 07:42:59;;;;;;;4.07;3.60;;;;;;;27.62;42.73;97041.84;5901850;23;20731;-81
2023/07/19 07:45:25;;;;;;;3.97;3.10;;;;;;;27.86;41.87;97028.38;5896547;23;20234;-80
2023/07/19 07:47:53;;;;;;;5.15;3.10;;;;;;;27.76;42.88;97035.91;5907313;23;20537;-80
2023/07/19 07:50:19;;;;;;;3.47;3.13;;;;;;;27.70;42.58;97036.56;5929541;23;20305;-81
2023/07/19 07:52:44;;;;;;;4.80;3.50;;;;;;;27.90;43.53;97021.16;5898839;23;20195;-80
2023/07/19 07:55:13;;;;;;;4.53;3.60;;;;;;;28.29;41.52;97023.59;5898513;23;20175;-81
2023/07/19 07:57:39;;;;;;;4.25;3.45;;;;;;;28.42;41.69;97029.50;5907981;23;20657;-81
2023/07/19 08:00:11;;;;;;;3.72;3.28;;;;;;;28.59;41.29;97023.59;5898381;23;20274;-81
2023/07/19 08:02:37;;;;;;;3.35;3.15;;;;;;;28.83;39.68;97024.22;5966671;23;20185;-81
2023/07/19 08:05:05;;;;;;;3.80;3.40;;;;;;;28.81;40.59;97013.88;5907959;23;20171;-80
2023/07/19 08:07:30;;;;;;;3.65;3.35;;;;;;;28.97;39.44;97013.63;5898480;23;20115;-80
2023/07/19 08:09:56;;;;;;;3.65;3.35;;;;;;;29.14;39.49;97006.88;5909855;23;20261;-81
2023/07/19 08:12:21;;;;;;;5.13;3.05;;;;;;;29.19;39.46;97003.88;5908459;23;20596;-81
2023/07/19 08:14:47;;;;;;;4.93;3.25;;;;;;;29.26;39.40;96998.56;5908461;23;20236;-81
2023/07/19 08:17:12;;;;;;;3.65;3.35;;;;;;;29.45;38.69;96996.78;5907448;23;20135;-81
2023/07/19 08:19:38;;;;;;;4.85;3.20;;;;;;;29.58;38.86;96987.28;5931395;23;20187;-81
2023/07/19 08:22:04;;;;;;;4.38;3.60;;;;;;;29.76;38.63;96989.31;5972488;23;20209;-81
2023/07/19 08:24:30;;;;;;;3.38;3.08;;;;;;;30.05;37.50;96995.59;5908324;23;20266;-81
2023/07/19 08:26:55;;;;;;;3.67;3.22;;;;;;;30.00;37.09;96977.94;5898501;23;20618;-82
2023/07/19 08:29:23;;;;;;;3.15;2.85;;;;;;;30.22;36.79;96986.09;5907440;23;20230;-80
2023/07/19 08:31:48;;;;;;;2.80;2.60;;;;;;;30.30;35.78;96984.16;5930347;23;20148;-81
2023/07/19 08:34:13;;;;;;;3.75;2.35;;;;;;;30.42;34.44;96973.88;5932263;23;20689;-81
2023/07/19 08:36:39;;;;;;;3.80;2.60;;;;;;;30.27;35.02;96972.28;5898597;23;20191;-81
2023/07/19 08:39:04;;;;;;;4.10;2.88;;;;;;;30.44;34.84;96979.66;5909021;23;20638;-80
2023/07/19 08:41:32;;;;;;;3.33;2.50;;;;;;;30.66;33.93;96966.25;5910014;23;20254;-81
2023/07/19 08:43:58;;;;;;;2.60;2.40;;;;;;;30.85;33.60;96972.44;5897122;23;20229;-81
2023/07/19 08:46:24;;;;;;;3.08;2.75;;;;;;;31.04;34.22;96968.63;6005791;23;20204;-81
2023/07/19 08:48:49;;;;;;;3.67;2.67;;;;;;;31.16;33.11;96962.84;5875786;23;20192;-80
2023/07/19 08:51:18;;;;;;;3.72;2.80;;;;;;;31.04;33.03;96961.31;5852468;23;20445;-81
2023/07/19 08:53:44;;;;;;;2.80;2.60;;;;;;;30.94;34.25;96959.41;5908497;23;20166;-80
2023/07/19 08:56:14;;;;;;;3.50;2.10;;;;;;;31.26;31.91;96961.31;6005091;23;20257;-81
2023/07/19 08:58:40;;;;;;;2.65;1.90;;;;;;;31.36;31.79;96955.91;5899541;23;20184;-80
2023/07/19 09:01:07;;;;;;;4.93;2.83;;;;;;;31.58;31.02;96958.56;5904935;23;20281;-81
2023/07/19 09:03:32;;;;;;;3.85;1.90;;;;;;;31.70;29.25;96958.16;5907647;23;20076;-80
2023/07/19 09:05:58;;;;;;;2.65;2.35;;;;;;;31.66;30.00;96954.69;5909611;23;20257;-81
2023/07/19 09:08:42;;;;;;;2.10;1.83;;;;;;;31.88;29.10;96966.16;5875628;23;20740;-81
2023/07/19 09:11:08;;;;;;;;;;;;;;;31.95;28.93;96964.63;5931596;23;20630;-81
2023/07/19 09:13:36;;;;;;;2.20;2.00;;;;;;;31.66;31.41;96960.06;5899439;23;20082;-81
2023/07/19 09:16:03;;;;;;;2.33;2.13;;;;;;;31.60;30.95;96958.97;5908510;23;20148;-80
2023/07/19 09:18:34;;;;;;;2.85;1.98;;;;;;;32.04;29.20;96957.63;6006648;23;20595;-80
2023/07/19 09:20:59;;;;;;;4.47;2.17;;;;;;;31.85;29.60;96944.63;6005039;23;20194;-80
2023/07/19 09:23:25;;;;;;;2.47;1.83;;;;;;;32.14;28.76;96958.00;5900113;23;20243;-80
2023/07/19 09:25:52;;;;;;;1.77;1.67;;;;;;;32.33;28.63;96964.84;5898995;23;20306;-81
2023/07/19 09:28:22;;;;;;;2.97;1.70;;;;;;;32.10;29.21;96958.03;5995661;23;20603;-81
2023/07/19 09:31:08;;;;;;;2.00;1.90;;;;;;;32.41;28.90;96959.00;5875715;23;20129;-80
2023/07/19 09:33:33;;;;;;;6.60;1.80;;;;;;;32.62;28.57;96960.06;5876566;23;20199;-80
2023/07/19 09:35:58;;;;;;;2.45;1.73;;;;;;;32.42;28.85;96955.16;5899166;23;20641;-81
2023/07/19 09:38:25;;;;;;;4.03;2.00;;;;;;;32.15;29.45;96954.94;5875128;23;20183;-80
2023/07/19 09:40:52;;;;;;;2.58;2.33;;;;;;;32.20;28.14;96961.81;5899065;23;20174;-80
2023/07/19 09:43:19;;;;;;;2.33;2.13;;;;;;;31.91;29.59;96953.84;6029200;23;20221;-81
2023/07/19 09:45:47;;;;;;;1.88;1.77;;;;;;;31.95;30.44;96954.59;5907193;23;20592;-81
2023/07/19 09:48:18;;;;;;;3.28;2.10;;;;;;;32.15;29.61;96957.63;5908779;23;20144;-80
2023/07/19 09:50:47;;;;;;;2.30;2.10;;;;;;;32.40;29.86;96954.00;5852682;23;20611;-81
2023/07/19 09:53:13;;;;;;;2.25;1.92;;;;;;;32.53;28.51;96949.72;5907319;23;20216;-81
2023/07/19 09:55:39;;;;;;;4.05;2.08;;;;;;;32.69;28.29;96945.78;5907874;23;20148;-80
2023/07/19 09:58:13;;;;;;;4.15;2.10;;;;;;;32.97;29.07;96945.56;6029076;23;20479;-81
2023/07/19 10:00:39;;;;;;;4.78;2.50;;;;;;;32.83;28.84;96940.25;6003289;23;20487;-80
2023/07/19 10:03:08;;;;;;;2.58;2.30;;;;;;;32.66;28.99;96948.09;5973519;23;20266;-81
2023/07/19 10:05:35;;;;;;;7.90;2.40;;;;;;;32.26;28.47;96936.78;5900061;23;20141;-81
2023/07/19 10:08:05;;;;;;;3.03;2.03;;;;;;;32.08;29.54;96944.97;5997072;23;20415;-80
2023/07/19 10:10:40;;;;;;;3.47;2.47;;;;;;;32.09;29.72;96943.78;5900109;23;20226;-82
2023/07/19 10:13:06;;;;;;;6.78;3.05;;;;;;;32.10;28.41;96944.56;5908007;23;20310;-82
2023/07/19 10:15:32;;;;;;;4.18;2.83;;;;;;;31.92;28.29;96929.22;5973816;23;20168;-81
2023/07/19 10:18:00;;;;;;;2.63;2.40;;;;;;;31.81;29.39;96941.97;5998021;23;20265;-81
2023/07/19 10:20:30;;;;;;;7.72;2.40;;;;;;;31.87;30.08;96943.06;5930473;23;20191;-81
2023/07/19 10:23:00;;;;;;;3.95;2.20;;;;;;;31.98;30.11;96936.88;5973574;23;20173;-81
2023/07/19 10:25:47;;;;;;;4.82;2.63;;;;;;;32.26;28.56;96933.31;6022174;23;20235;-81
2023/07/19 10:28:13;;;;;;;2.60;2.40;;;;;;;32.08;30.04;96930.69;5853418;23;20332;-81
2023/07/19 10:30:45;;;;;;;6.32;2.95;;;;;;;32.07;30.97;96924.56;5876391;23;20267;-81
2023/07/19 10:33:11;;;;;;;3.17;2.50;;;;;;;32.16;30.67;96926.81;5899358;23;20651;-81
2023/07/19 10:35:39;;;;;;;4.07;2.80;;;;;;;32.30;29.21;96917.88;5972277;23;20659;-81
2023/07/19 10:38:05;;;;;;;3.15;2.83;;;;;;;32.59;28.89;96912.31;5899586;23;20207;-81
2023/07/19 10:40:30;;;;;;;4.82;2.90;;;;;;;32.94;28.70;96902.44;5909312;23;20167;-80
2023/07/19 10:42:56;;;;;;;4.45;2.80;;;;;;;32.56;28.90;96896.91;5909807;23;20712;-80
2023/07/19 10:45:25;;;;;;;5.82;2.75;;;;;;;33.09;29.09;96893.03;5899564;23;20152;-81
2023/07/19 10:48:16;;;;;;;3.25;3.00;;;;;;;33.46;27.66;96888.06;5899944;23;20217;-81
2023/07/19 10:50:46;;;;;;;3.28;2.97;;;;;;;33.63;28.19;96891.72;5931252;23;20089;-80
2023/07/19 10:53:11;;;;;;;5.03;2.80;;;;;;;33.26;27.85;96885.94;5971903;23;20655;-80
2023/07/19 10:55:37;;;;;;;4.65;2.88;;;;;;;33.18;27.14;96884.50;5899065;23;20165;-81
2023/07/19 10:58:02;;;;;;;3.20;3.00;;;;;;;33.01;26.84;96873.44;5930232;23;20172;-81
2023/07/19 11:00:28;;;;;;;4.68;2.70;;;;;;;32.83;27.60;96880.94;5883813;23;20272;-81
2023/07/19 11:02:54;;;;;;;5.55;2.85;;;;;;;32.58;26.89;96876.50;5908046;23;20166;-80
2023/07/19 11:05:19;;;;;;;3.65;3.10;;;;;;;32.46;27.34;96885.06;5922204;23;20228;-81
2023/07/19 11:07:47;;;;;;;6.88;2.88;;;;;;;32.26;28.87;96884.81;5898920;23;20549;-81
2023/07/19 11:10:13;;;;;;;4.68;3.03;;;;;;;31.90;29.36;96885.75;6030274;23;20378;-81
2023/07/19 11:12:38;;;;;;;4.47;2.97;;;;;;;31.34;29.85;96869.44;5910267;23;20656;-82
2023/07/19 11:15:07;;;;;;;4.78;3.72;;;;;;;31.55;30.05;96887.44;5931997;23;20225;-82
2023/07/19 11:17:32;;;;;;;5.93;3.05;;;;;;;31.77;29.56;96884.66;5885590;23;20178;-82
2023/07/19 11:19:58;;;;;;;6.07;3.20;;;;;;;32.03;30.38;96879.91;5884900;23;20229;-81
2023/07/19 11:22:25;;;;;;;3.50;2.67;;;;;;;32.13;31.60;96883.75;5898722;23;20277;-81
2023/07/19 11:24:53;;;;;;;4.22;3.30;;;;;;;32.09;29.64;96889.91;5972507;23;20178;-81
2023/07/19 11:27:35;;;;;;;3.10;2.80;;;;;;;32.06;31.73;96892.63;5886046;23;20183;-80
2023/07/19 11:30:01;;;;;;;3.78;3.05;;;;;;;31.69;32.67;96893.94;5997700;23;20404;-80